sensor_id;sensor_type;location;lat;lon;timestamp;temperature;humidity
48454;DHT22;34261;55.678;12.464;2023-04-03T00:00:14;2.60;99.90
48454;DHT22;34261;55.678;12.464;2023-04-03T00:02:39;2.60;99.90
48454;DHT22;34261;55.678;12.464;2023-04-03T00:05:06;2.60;99.90
48454;DHT22;34261;55.678;12.464;2023-04-03T00:07:31;2.60;99.90
48454;DHT22;34261;55.678;12.464;2023-04-03T00:09:57;2.70;99.90
48454;DHT22;34261;55.678;12.464;2023-04-03T00:12:22;2.80;99.90
48454;DHT22;34261;55.678;12.464;2023-04-03T00:14:48;2.80;99.90
48454;DHT22;34261;55.678;12.464;2023-04-03T00:17:13;2.90;99.90
48454;DHT22;34261;55.678;12.464;2023-04-03T00:19:38;2.90;99.90
48454;DHT22;34261;55.678;12.464;2023-04-03T00:22:04;3.00;99.90
48454;DHT22;34261;55.678;12.464;2023-04-03T00:24:30;3.00;99.90
48454;DHT22;34261;55.678;12.464;2023-04-03T00:26:55;3.00;99.90
48454;DHT22;34261;55.678;12.464;2023-04-03T00:29:21;3.00;99.90
48454;DHT22;34261;55.678;12.464;2023-04-03T00:31:46;3.00;99.90
48454;DHT22;34261;55.678;12.464;2023-04-03T00:34:12;3.00;99.90
48454;DHT22;34261;55.678;12.464;2023-04-03T00:36:37;2.90;99.90
48454;DHT22;34261;55.678;12.464;2023-04-03T00:39:02;2.90;99.90
48454;DHT22;34261;55.678;12.464;2023-04-03T00:41:28;2.80;99.90
48454;DHT22;34261;55.678;12.464;2023-04-03T00:43:53;2.80;99.90
48454;DHT22;34261;55.678;12.464;2023-04-03T00:46:19;2.70;99.90
48454;DHT22;34261;55.678;12.464;2023-04-03T00:48:45;2.70;99.90
48454;DHT22;34261;55.678;12.464;2023-04-03T00:51:12;2.70;99.90
48454;DHT22;34261;55.678;12.464;2023-04-03T00:53:39;2.60;99.90
48454;DHT22;34261;55.678;12.464;2023-04-03T00:56:06;2.70;99.90
48454;DHT22;34261;55.678;12.464;2023-04-03T00:58:37;2.70;99.90
48454;DHT22;34261;55.678;12.464;2023-04-03T01:01:03;2.70;99.90
48454;DHT22;34261;55.678;12.464;2023-04-03T01:03:30;2.70;99.90
48454;DHT22;34261;55.678;12.464;2023-04-03T01:05:58;2.70;99.90
48454;DHT22;34261;55.678;12.464;2023-04-03T01:20:40;2.60;99.90
48454;DHT22;34261;55.678;12.464;2023-04-03T01:25:34;2.60;99.90
48454;DHT22;34261;55.678;12.464;2023-04-03T01:28:02;2.50;99.90
48454;DHT22;34261;55.678;12.464;2023-04-03T01:30:31;2.50;99.90
48454;DHT22;34261;55.678;12.464;2023-04-03T01:32:56;2.50;99.90
48454;DHT22;34261;55.678;12.464;2023-04-03T01:35:22;2.50;99.90
48454;DHT22;34261;55.678;12.464;2023-04-03T01:37:48;2.50;99.90
48454;DHT22;34261;55.678;12.464;2023-04-03T01:40:13;2.50;99.90
48454;DHT22;34261;55.678;12.464;2023-04-03T01:42:38;2.60;99.90
48454;DHT22;34261;55.678;12.464;2023-04-03T01:45:04;2.60;99.90
48454;DHT22;34261;55.678;12.464;2023-04-03T01:47:30;2.70;99.90
48454;DHT22;34261;55.678;12.464;2023-04-03T01:49:56;2.70;99.90
48454;DHT22;34261;55.678;12.464;2023-04-03T01:52:21;2.80;99.90
48454;DHT22;34261;55.678;12.464;2023-04-03T01:54:46;2.90;99.90
48454;DHT22;34261;55.678;12.464;2023-04-03T01:57:12;2.90;99.90
48454;DHT22;34261;55.678;12.464;2023-04-03T01:59:41;2.90;99.90
48454;DHT22;34261;55.678;12.464;2023-04-03T02:02:10;2.80;99.90
48454;DHT22;34261;55.678;12.464;2023-04-03T02:04:37;2.80;99.90
48454;DHT22;34261;55.678;12.464;2023-04-03T02:07:03;2.80;99.90
48454;DHT22;34261;55.678;12.464;2023-04-03T02:09:29;2.70;99.90
48454;DHT22;34261;55.678;12.464;2023-04-03T02:11:54;2.60;99.90
48454;DHT22;34261;55.678;12.464;2023-04-03T02:14:20;2.60;99.90
48454;DHT22;34261;55.678;12.464;2023-04-03T02:16:47;2.50;99.90
48454;DHT22;34261;55.678;12.464;2023-04-03T02:19:12;2.50;99.90
48454;DHT22;34261;55.678;12.464;2023-04-03T02:21:38;2.40;99.90
48454;DHT22;34261;55.678;12.464;2023-04-03T02:24:03;2.40;99.90
48454;DHT22;34261;55.678;12.464;2023-04-03T02:26:29;2.30;99.90
48454;DHT22;34261;55.678;12.464;2023-04-03T02:28:54;2.30;99.90
48454;DHT22;34261;55.678;12.464;2023-04-03T02:31:19;2.20;99.90
48454;DHT22;34261;55.678;12.464;2023-04-03T02:33:46;2.10;99.90
48454;DHT22;34261;55.678;12.464;2023-04-03T02:36:11;2.10;99.90
48454;DHT22;34261;55.678;12.464;2023-04-03T02:38:36;2.00;99.90
48454;DHT22;34261;55.678;12.464;2023-04-03T02:41:03;2.00;99.90
48454;DHT22;34261;55.678;12.464;2023-04-03T02:43:28;2.00;99.90
48454;DHT22;34261;55.678;12.464;2023-04-03T02:45:54;2.00;99.90
48454;DHT22;34261;55.678;12.464;2023-04-03T02:48:19;1.90;99.90
48454;DHT22;34261;55.678;12.464;2023-04-03T02:50:45;1.90;99.90
48454;DHT22;34261;55.678;12.464;2023-04-03T02:53:11;1.90;99.90
48454;DHT22;34261;55.678;12.464;2023-04-03T02:55:37;1.90;99.90
48454;DHT22;34261;55.678;12.464;2023-04-03T02:58:04;2.00;99.90
48454;DHT22;34261;55.678;12.464;2023-04-03T03:00:29;1.90;99.90
48454;DHT22;34261;55.678;12.464;2023-04-03T03:02:55;2.00;99.90
48454;DHT22;34261;55.678;12.464;2023-04-03T03:05:20;2.00;99.90
48454;DHT22;34261;55.678;12.464;2023-04-03T03:07:46;2.10;99.90
48454;DHT22;34261;55.678;12.464;2023-04-03T03:10:14;2.10;99.90
48454;DHT22;34261;55.678;12.464;2023-04-03T03:12:39;2.00;99.90
48454;DHT22;34261;55.678;12.464;2023-04-03T03:15:06;2.00;99.90
48454;DHT22;34261;55.678;12.464;2023-04-03T03:17:31;1.90;99.90
48454;DHT22;34261;55.678;12.464;2023-04-03T03:19:57;1.90;99.90
48454;DHT22;34261;55.678;12.464;2023-04-03T03:22:22;2.00;99.90
48454;DHT22;34261;55.678;12.464;2023-04-03T03:24:47;1.90;99.90
48454;DHT22;34261;55.678;12.464;2023-04-03T03:27:13;1.90;99.90
48454;DHT22;34261;55.678;12.464;2023-04-03T03:29:38;1.90;99.90
48454;DHT22;34261;55.678;12.464;2023-04-03T03:32:04;1.80;99.90
48454;DHT22;34261;55.678;12.464;2023-04-03T03:34:29;1.70;99.90
48454;DHT22;34261;55.678;12.464;2023-04-03T03:36:55;1.70;99.90
48454;DHT22;34261;55.678;12.464;2023-04-03T03:39:20;1.70;99.90
48454;DHT22;34261;55.678;12.464;2023-04-03T03:41:46;1.70;99.90
48454;DHT22;34261;55.678;12.464;2023-04-03T03:44:11;1.70;99.90
48454;DHT22;34261;55.678;12.464;2023-04-03T03:46:37;1.70;99.90
48454;DHT22;34261;55.678;12.464;2023-04-03T03:49:02;1.60;99.90
48454;DHT22;34261;55.678;12.464;2023-04-03T03:51:28;1.60;99.90
48454;DHT22;34261;55.678;12.464;2023-04-03T03:53:53;1.70;99.90
48454;DHT22;34261;55.678;12.464;2023-04-03T03:56:18;1.70;99.90
48454;DHT22;34261;55.678;12.464;2023-04-03T03:58:45;1.60;99.90
48454;DHT22;34261;55.678;12.464;2023-04-03T04:01:11;1.60;99.90
48454;DHT22;34261;55.678;12.464;2023-04-03T04:03:37;1.50;99.90
48454;DHT22;34261;55.678;12.464;2023-04-03T04:06:03;1.50;99.90
48454;DHT22;34261;55.678;12.464;2023-04-03T04:08:28;1.50;99.90
48454;DHT22;34261;55.678;12.464;2023-04-03T04:10:54;1.40;99.90
48454;DHT22;34261;55.678;12.464;2023-04-03T04:13:20;1.50;99.90
48454;DHT22;34261;55.678;12.464;2023-04-03T04:15:45;1.40;99.90
48454;DHT22;34261;55.678;12.464;2023-04-03T04:18:13;1.40;99.90
48454;DHT22;34261;55.678;12.464;2023-04-03T04:20:39;1.40;99.90
48454;DHT22;34261;55.678;12.464;2023-04-03T04:23:05;1.40;99.90
48454;DHT22;34261;55.678;12.464;2023-04-03T04:25:30;1.40;99.90
48454;DHT22;34261;55.678;12.464;2023-04-03T04:27:56;1.40;99.90
48454;DHT22;34261;55.678;12.464;2023-04-03T04:30:21;1.30;99.90
48454;DHT22;34261;55.678;12.464;2023-04-03T04:32:48;1.30;99.90
48454;DHT22;34261;55.678;12.464;2023-04-03T04:35:13;1.30;99.90
48454;DHT22;34261;55.678;12.464;2023-04-03T04:37:39;1.20;99.90
48454;DHT22;34261;55.678;12.464;2023-04-03T04:40:05;1.20;99.90
48454;DHT22;34261;55.678;12.464;2023-04-03T04:42:31;1.20;99.90
48454;DHT22;34261;55.678;12.464;2023-04-03T04:44:56;1.20;99.90
48454;DHT22;34261;55.678;12.464;2023-04-03T04:47:22;1.20;99.90
48454;DHT22;34261;55.678;12.464;2023-04-03T04:49:47;1.20;99.90
48454;DHT22;34261;55.678;12.464;2023-04-03T04:52:13;1.20;99.90
48454;DHT22;34261;55.678;12.464;2023-04-03T04:54:38;1.20;99.90
48454;DHT22;34261;55.678;12.464;2023-04-03T04:57:04;1.20;99.90
48454;DHT22;34261;55.678;12.464;2023-04-03T04:59:29;1.20;99.90
48454;DHT22;34261;55.678;12.464;2023-04-03T05:01:55;1.20;99.90
48454;DHT22;34261;55.678;12.464;2023-04-03T05:04:20;1.20;99.90
48454;DHT22;34261;55.678;12.464;2023-04-03T05:06:46;1.20;99.90
48454;DHT22;34261;55.678;12.464;2023-04-03T05:09:11;1.30;99.90
48454;DHT22;34261;55.678;12.464;2023-04-03T05:11:37;1.30;99.90
48454;DHT22;34261;55.678;12.464;2023-04-03T05:14:03;1.40;99.90
48454;DHT22;34261;55.678;12.464;2023-04-03T05:16:32;1.40;99.90
48454;DHT22;34261;55.678;12.464;2023-04-03T05:18:57;1.40;99.90
48454;DHT22;34261;55.678;12.464;2023-04-03T05:21:23;1.40;99.90
48454;DHT22;34261;55.678;12.464;2023-04-03T05:23:51;1.40;99.90
48454;DHT22;34261;55.678;12.464;2023-04-03T05:26:17;1.50;99.90
48454;DHT22;34261;55.678;12.464;2023-04-03T05:28:42;1.50;99.90
48454;DHT22;34261;55.678;12.464;2023-04-03T05:31:08;1.60;99.90
48454;DHT22;34261;55.678;12.464;2023-04-03T05:33:33;1.70;99.90
48454;DHT22;34261;55.678;12.464;2023-04-03T05:36:02;1.70;99.90
48454;DHT22;34261;55.678;12.464;2023-04-03T05:38:28;1.80;99.90
48454;DHT22;34261;55.678;12.464;2023-04-03T05:40:54;1.80;99.90
48454;DHT22;34261;55.678;12.464;2023-04-03T05:43:19;1.90;99.90
48454;DHT22;34261;55.678;12.464;2023-04-03T05:45:45;2.00;99.90
48454;DHT22;34261;55.678;12.464;2023-04-03T05:48:12;2.10;99.90
48454;DHT22;34261;55.678;12.464;2023-04-03T05:50:37;2.20;99.90
48454;DHT22;34261;55.678;12.464;2023-04-03T05:53:12;2.30;99.90
48454;DHT22;34261;55.678;12.464;2023-04-03T05:55:39;2.30;99.90
48454;DHT22;34261;55.678;12.464;2023-04-03T05:58:05;2.50;99.90
48454;DHT22;34261;55.678;12.464;2023-04-03T06:00:30;2.50;99.90
48454;DHT22;34261;55.678;12.464;2023-04-03T06:02:56;2.70;99.90
48454;DHT22;34261;55.678;12.464;2023-04-03T06:05:21;2.80;99.90
48454;DHT22;34261;55.678;12.464;2023-04-03T06:07:47;2.90;99.90
48454;DHT22;34261;55.678;12.464;2023-04-03T06:10:14;3.00;99.90
48454;DHT22;34261;55.678;12.464;2023-04-03T06:12:40;3.20;99.90
48454;DHT22;34261;55.678;12.464;2023-04-03T06:15:06;3.30;99.90
48454;DHT22;34261;55.678;12.464;2023-04-03T06:17:33;3.40;99.90
48454;DHT22;34261;55.678;12.464;2023-04-03T06:19:58;3.50;99.90
48454;DHT22;34261;55.678;12.464;2023-04-03T06:22:25;3.50;99.90
48454;DHT22;34261;55.678;12.464;2023-04-03T06:24:51;3.60;99.90
48454;DHT22;34261;55.678;12.464;2023-04-03T06:27:17;3.70;99.90
48454;DHT22;34261;55.678;12.464;2023-04-03T06:29:43;3.80;99.90
48454;DHT22;34261;55.678;12.464;2023-04-03T06:32:10;3.90;99.90
48454;DHT22;34261;55.678;12.464;2023-04-03T06:34:35;4.00;99.90
48454;DHT22;34261;55.678;12.464;2023-04-03T06:37:01;4.10;99.90
48454;DHT22;34261;55.678;12.464;2023-04-03T06:39:26;4.10;99.50
48454;DHT22;34261;55.678;12.464;2023-04-03T06:41:52;4.10;99.30
48454;DHT22;34261;55.678;12.464;2023-04-03T06:44:18;4.20;99.20
48454;DHT22;34261;55.678;12.464;2023-04-03T06:46:43;4.30;98.90
48454;DHT22;34261;55.678;12.464;2023-04-03T06:49:09;4.30;98.60
48454;DHT22;34261;55.678;12.464;2023-04-03T06:51:35;4.40;98.70
48454;DHT22;34261;55.678;12.464;2023-04-03T06:54:01;4.50;98.30
48454;DHT22;34261;55.678;12.464;2023-04-03T06:56:28;4.50;98.10
48454;DHT22;34261;55.678;12.464;2023-04-03T06:58:54;4.60;98.10
48454;DHT22;34261;55.678;12.464;2023-04-03T07:01:22;4.70;97.90
48454;DHT22;34261;55.678;12.464;2023-04-03T07:03:48;4.80;97.80
48454;DHT22;34261;55.678;12.464;2023-04-03T07:06:17;4.90;97.70
48454;DHT22;34261;55.678;12.464;2023-04-03T07:08:42;4.90;97.10
48454;DHT22;34261;55.678;12.464;2023-04-03T07:11:09;5.00;97.20
48454;DHT22;34261;55.678;12.464;2023-04-03T07:13:35;5.10;97.20
48454;DHT22;34261;55.678;12.464;2023-04-03T07:16:02;5.30;96.60
48454;DHT22;34261;55.678;12.464;2023-04-03T07:18:29;5.40;96.20
48454;DHT22;34261;55.678;12.464;2023-04-03T07:20:54;5.40;96.00
48454;DHT22;34261;55.678;12.464;2023-04-03T07:23:20;5.40;97.90
48454;DHT22;34261;55.678;12.464;2023-04-03T07:25:45;5.50;96.60
48454;DHT22;34261;55.678;12.464;2023-04-03T07:28:11;5.70;95.90
48454;DHT22;34261;55.678;12.464;2023-04-03T07:30:44;5.70;95.30
48454;DHT22;34261;55.678;12.464;2023-04-03T07:33:10;5.70;94.90
48454;DHT22;34261;55.678;12.464;2023-04-03T07:35:36;5.70;94.20
48454;DHT22;34261;55.678;12.464;2023-04-03T07:38:02;5.80;94.60
48454;DHT22;34261;55.678;12.464;2023-04-03T07:40:27;5.90;94.30
48454;DHT22;34261;55.678;12.464;2023-04-03T07:42:53;5.80;93.20
48454;DHT22;34261;55.678;12.464;2023-04-03T07:45:18;5.70;92.30
48454;DHT22;34261;55.678;12.464;2023-04-03T07:47:44;5.70;92.40
48454;DHT22;34261;55.678;12.464;2023-04-03T07:50:10;5.80;92.50
48454;DHT22;34261;55.678;12.464;2023-04-03T07:52:35;5.80;91.80
48454;DHT22;34261;55.678;12.464;2023-04-03T07:55:02;5.90;92.60
48454;DHT22;34261;55.678;12.464;2023-04-03T07:57:27;6.10;93.70
48454;DHT22;34261;55.678;12.464;2023-04-03T07:59:52;6.20;94.30
48454;DHT22;34261;55.678;12.464;2023-04-03T08:02:18;6.30;93.90
48454;DHT22;34261;55.678;12.464;2023-04-03T08:04:43;6.30;94.00
48454;DHT22;34261;55.678;12.464;2023-04-03T08:07:09;6.40;93.40
48454;DHT22;34261;55.678;12.464;2023-04-03T08:09:37;6.50;93.40
48454;DHT22;34261;55.678;12.464;2023-04-03T08:12:04;6.60;92.50
48454;DHT22;34261;55.678;12.464;2023-04-03T08:14:33;6.40;91.50
48454;DHT22;34261;55.678;12.464;2023-04-03T08:17:01;6.40;93.10
48454;DHT22;34261;55.678;12.464;2023-04-03T08:19:29;6.40;92.70
48454;DHT22;34261;55.678;12.464;2023-04-03T08:21:55;6.50;93.10
48454;DHT22;34261;55.678;12.464;2023-04-03T08:24:20;6.50;92.80
48454;DHT22;34261;55.678;12.464;2023-04-03T08:26:46;6.70;93.50
48454;DHT22;34261;55.678;12.464;2023-04-03T08:29:11;6.70;92.20
48454;DHT22;34261;55.678;12.464;2023-04-03T08:31:42;6.70;91.20
48454;DHT22;34261;55.678;12.464;2023-04-03T08:34:08;6.80;90.90
48454;DHT22;34261;55.678;12.464;2023-04-03T08:36:33;7.00;91.10
48454;DHT22;34261;55.678;12.464;2023-04-03T08:38:59;7.00;91.30
48454;DHT22;34261;55.678;12.464;2023-04-03T08:43:56;7.20;91.00
48454;DHT22;34261;55.678;12.464;2023-04-03T08:46:23;7.20;90.30
48454;DHT22;34261;55.678;12.464;2023-04-03T08:48:51;7.30;90.00
48454;DHT22;34261;55.678;12.464;2023-04-03T08:51:17;7.30;86.90
48454;DHT22;34261;55.678;12.464;2023-04-03T08:53:45;7.50;89.80
48454;DHT22;34261;55.678;12.464;2023-04-03T08:56:14;7.50;88.80
48454;DHT22;34261;55.678;12.464;2023-04-03T08:58:54;7.60;86.60
48454;DHT22;34261;55.678;12.464;2023-04-03T09:03:46;7.60;85.40
48454;DHT22;34261;55.678;12.464;2023-04-03T09:06:13;7.50;80.10
48454;DHT22;34261;55.678;12.464;2023-04-03T09:08:42;7.40;83.10
48454;DHT22;34261;55.678;12.464;2023-04-03T09:11:12;7.60;81.50
48454;DHT22;34261;55.678;12.464;2023-04-03T09:13:49;7.80;82.90
48454;DHT22;34261;55.678;12.464;2023-04-03T09:17:02;7.70;82.00
48454;DHT22;34261;55.678;12.464;2023-04-03T09:19:07;7.80;83.20
48454;DHT22;34261;55.678;12.464;2023-04-03T09:21:36;8.00;81.40
48454;DHT22;34261;55.678;12.464;2023-04-03T09:24:02;8.40;83.90
48454;DHT22;34261;55.678;12.464;2023-04-03T09:26:33;8.70;82.70
48454;DHT22;34261;55.678;12.464;2023-04-03T09:29:00;8.90;80.80
48454;DHT22;34261;55.678;12.464;2023-04-03T09:31:30;8.80;79.20
48454;DHT22;34261;55.678;12.464;2023-04-03T09:34:01;8.60;78.20
48454;DHT22;34261;55.678;12.464;2023-04-03T09:36:41;8.70;77.40
48454;DHT22;34261;55.678;12.464;2023-04-03T09:39:17;8.40;70.80
48454;DHT22;34261;55.678;12.464;2023-04-03T09:41:54;8.30;69.50
48454;DHT22;34261;55.678;12.464;2023-04-03T09:44:21;8.30;71.70
48454;DHT22;34261;55.678;12.464;2023-04-03T09:46:46;8.80;72.20
48454;DHT22;34261;55.678;12.464;2023-04-03T09:49:12;8.90;73.00
48454;DHT22;34261;55.678;12.464;2023-04-03T09:51:38;9.10;68.40
48454;DHT22;34261;55.678;12.464;2023-04-03T09:56:50;8.90;65.20
48454;DHT22;34261;55.678;12.464;2023-04-03T09:59:16;9.00;64.20
48454;DHT22;34261;55.678;12.464;2023-04-03T10:01:43;8.90;65.60
48454;DHT22;34261;55.678;12.464;2023-04-03T10:04:16;9.00;66.30
48454;DHT22;34261;55.678;12.464;2023-04-03T10:06:48;9.00;65.90
48454;DHT22;34261;55.678;12.464;2023-04-03T10:09:25;9.30;65.00
48454;DHT22;34261;55.678;12.464;2023-04-03T10:11:58;9.60;64.90
48454;DHT22;34261;55.678;12.464;2023-04-03T10:14:26;10.00;63.80
48454;DHT22;34261;55.678;12.464;2023-04-03T10:17:15;10.10;63.40
48454;DHT22;34261;55.678;12.464;2023-04-03T10:19:49;10.20;67.10
48454;DHT22;34261;55.678;12.464;2023-04-03T10:22:20;10.20;65.50
48454;DHT22;34261;55.678;12.464;2023-04-03T10:24:51;10.30;66.80
48454;DHT22;34261;55.678;12.464;2023-04-03T10:27:22;10.30;66.40
48454;DHT22;34261;55.678;12.464;2023-04-03T10:30:00;10.30;67.50
48454;DHT22;34261;55.678;12.464;2023-04-03T10:32:42;10.40;66.00
48454;DHT22;34261;55.678;12.464;2023-04-03T10:35:28;10.50;64.40
48454;DHT22;34261;55.678;12.464;2023-04-03T10:40:48;10.90;63.60
48454;DHT22;34261;55.678;12.464;2023-04-03T10:43:22;11.00;64.50
48454;DHT22;34261;55.678;12.464;2023-04-03T10:46:00;10.90;63.10
48454;DHT22;34261;55.678;12.464;2023-04-03T10:48:45;10.80;65.60
48454;DHT22;34261;55.678;12.464;2023-04-03T10:54:18;10.70;67.70
48454;DHT22;34261;55.678;12.464;2023-04-03T10:56:48;10.90;65.90
48454;DHT22;34261;55.678;12.464;2023-04-03T10:59:27;11.00;63.10
48454;DHT22;34261;55.678;12.464;2023-04-03T11:01:55;11.10;64.00
48454;DHT22;34261;55.678;12.464;2023-04-03T11:04:22;11.10;64.40
48454;DHT22;34261;55.678;12.464;2023-04-03T11:06:54;11.40;70.60
48454;DHT22;34261;55.678;12.464;2023-04-03T11:11:51;12.10;69.10
48454;DHT22;34261;55.678;12.464;2023-04-03T11:14:24;12.30;68.50
48454;DHT22;34261;55.678;12.464;2023-04-03T11:16:59;12.40;67.50
48454;DHT22;34261;55.678;12.464;2023-04-03T11:19:34;12.20;62.80
48454;DHT22;34261;55.678;12.464;2023-04-03T11:24:29;12.10;68.30
48454;DHT22;34261;55.678;12.464;2023-04-03T11:27:01;12.40;67.80
48454;DHT22;34261;55.678;12.464;2023-04-03T11:29:50;12.70;67.40
48454;DHT22;34261;55.678;12.464;2023-04-03T11:35:17;13.10;62.80
48454;DHT22;34261;55.678;12.464;2023-04-03T11:37:48;13.20;64.40
48454;DHT22;34261;55.678;12.464;2023-04-03T11:40:24;13.00;60.80
48454;DHT22;34261;55.678;12.464;2023-04-03T11:42:55;13.00;65.30
48454;DHT22;34261;55.678;12.464;2023-04-03T11:45:38;13.30;63.00
48454;DHT22;34261;55.678;12.464;2023-04-03T11:51:00;13.30;59.80
48454;DHT22;34261;55.678;12.464;2023-04-03T11:58:27;13.30;62.30
48454;DHT22;34261;55.678;12.464;2023-04-03T12:00:54;13.50;61.60
48454;DHT22;34261;55.678;12.464;2023-04-03T12:05:54;13.70;62.20
48454;DHT22;34261;55.678;12.464;2023-04-03T12:11:32;14.10;62.00
48454;DHT22;34261;55.678;12.464;2023-04-03T12:22:13;14.50;60.30
48454;DHT22;34261;55.678;12.464;2023-04-03T12:24:40;14.70;61.30
48454;DHT22;34261;55.678;12.464;2023-04-03T12:30:04;14.60;60.40
48454;DHT22;34261;55.678;12.464;2023-04-03T12:33:17;14.80;62.00
48454;DHT22;34261;55.678;12.464;2023-04-03T12:35:56;14.90;60.00
48454;DHT22;34261;55.678;12.464;2023-04-03T12:38:20;15.00;60.10
48454;DHT22;34261;55.678;12.464;2023-04-03T12:48:37;15.10;60.40
48454;DHT22;34261;55.678;12.464;2023-04-03T12:51:03;15.30;59.10
48454;DHT22;34261;55.678;12.464;2023-04-03T12:53:31;15.50;61.10
48454;DHT22;34261;55.678;12.464;2023-04-03T12:56:22;15.70;61.20
48454;DHT22;34261;55.678;12.464;2023-04-03T12:58:48;15.70;59.70
48454;DHT22;34261;55.678;12.464;2023-04-03T13:01:14;15.80;59.20
48454;DHT22;34261;55.678;12.464;2023-04-03T13:03:43;15.80;58.10
48454;DHT22;34261;55.678;12.464;2023-04-03T13:06:14;16.00;60.80
48454;DHT22;34261;55.678;12.464;2023-04-03T13:08:55;16.00;57.70
48454;DHT22;34261;55.678;12.464;2023-04-03T13:11:24;15.90;57.70
48454;DHT22;34261;55.678;12.464;2023-04-03T13:13:53;15.90;59.00
48454;DHT22;34261;55.678;12.464;2023-04-03T13:16:19;15.90;58.10
48454;DHT22;34261;55.678;12.464;2023-04-03T13:18:50;16.00;57.60
48454;DHT22;34261;55.678;12.464;2023-04-03T13:21:17;16.00;58.40
48454;DHT22;34261;55.678;12.464;2023-04-03T13:23:45;16.10;58.40
48454;DHT22;34261;55.678;12.464;2023-04-03T13:26:11;16.00;57.40
48454;DHT22;34261;55.678;12.464;2023-04-03T13:28:37;15.80;56.40
48454;DHT22;34261;55.678;12.464;2023-04-03T13:31:06;15.70;56.60
48454;DHT22;34261;55.678;12.464;2023-04-03T13:33:33;15.70;57.60
48454;DHT22;34261;55.678;12.464;2023-04-03T13:36:11;16.00;56.50
48454;DHT22;34261;55.678;12.464;2023-04-03T13:38:41;16.30;56.70
48454;DHT22;34261;55.678;12.464;2023-04-03T13:41:27;16.50;56.30
48454;DHT22;34261;55.678;12.464;2023-04-03T13:43:54;16.30;55.30
48454;DHT22;34261;55.678;12.464;2023-04-03T13:46:22;16.20;56.60
48454;DHT22;34261;55.678;12.464;2023-04-03T13:48:49;16.30;55.60
48454;DHT22;34261;55.678;12.464;2023-04-03T13:53:43;16.00;54.90
48454;DHT22;34261;55.678;12.464;2023-04-03T13:56:14;15.90;55.70
48454;DHT22;34261;55.678;12.464;2023-04-03T13:58:51;15.90;55.70
48454;DHT22;34261;55.678;12.464;2023-04-03T14:01:17;16.10;56.90
48454;DHT22;34261;55.678;12.464;2023-04-03T14:03:47;16.20;55.90
48454;DHT22;34261;55.678;12.464;2023-04-03T14:06:14;16.30;54.10
48454;DHT22;34261;55.678;12.464;2023-04-03T14:08:40;16.10;55.20
48454;DHT22;34261;55.678;12.464;2023-04-03T14:11:09;16.10;55.30
48454;DHT22;34261;55.678;12.464;2023-04-03T14:13:36;16.20;57.10
48454;DHT22;34261;55.678;12.464;2023-04-03T14:16:01;16.40;58.10
48454;DHT22;34261;55.678;12.464;2023-04-03T14:18:27;16.50;56.00
48454;DHT22;34261;55.678;12.464;2023-04-03T14:20:52;16.50;56.00
48454;DHT22;34261;55.678;12.464;2023-04-03T14:23:18;16.60;54.90
48454;DHT22;34261;55.678;12.464;2023-04-03T14:25:43;16.60;54.50
48454;DHT22;34261;55.678;12.464;2023-04-03T14:28:19;16.20;53.00
48454;DHT22;34261;55.678;12.464;2023-04-03T14:30:47;15.70;54.40
48454;DHT22;34261;55.678;12.464;2023-04-03T14:33:13;15.90;54.80
48454;DHT22;34261;55.678;12.464;2023-04-03T14:35:39;16.00;53.60
48454;DHT22;34261;55.678;12.464;2023-04-03T14:38:10;15.70;52.60
48454;DHT22;34261;55.678;12.464;2023-04-03T14:40:39;15.80;53.50
48454;DHT22;34261;55.678;12.464;2023-04-03T14:43:05;16.00;55.30
48454;DHT22;34261;55.678;12.464;2023-04-03T14:45:31;16.20;54.30
48454;DHT22;34261;55.678;12.464;2023-04-03T14:47:56;16.30;54.80
48454;DHT22;34261;55.678;12.464;2023-04-03T14:50:26;16.20;52.90
48454;DHT22;34261;55.678;12.464;2023-04-03T14:52:52;16.20;52.90
48454;DHT22;34261;55.678;12.464;2023-04-03T14:55:20;16.30;53.70
48454;DHT22;34261;55.678;12.464;2023-04-03T14:57:47;16.10;53.40
48454;DHT22;34261;55.678;12.464;2023-04-03T15:00:16;16.10;52.60
48454;DHT22;34261;55.678;12.464;2023-04-03T15:02:41;15.70;52.10
48454;DHT22;34261;55.678;12.464;2023-04-03T15:05:08;15.60;53.00
48454;DHT22;34261;55.678;12.464;2023-04-03T15:07:35;15.60;54.30
48454;DHT22;34261;55.678;12.464;2023-04-03T15:10:20;15.50;53.90
48454;DHT22;34261;55.678;12.464;2023-04-03T15:12:46;15.50;51.60
48454;DHT22;34261;55.678;12.464;2023-04-03T15:15:12;15.50;54.20
48454;DHT22;34261;55.678;12.464;2023-04-03T15:17:44;15.40;51.50
48454;DHT22;34261;55.678;12.464;2023-04-03T15:20:11;15.30;52.50
48454;DHT22;34261;55.678;12.464;2023-04-03T15:22:37;15.50;54.30
48454;DHT22;34261;55.678;12.464;2023-04-03T15:25:03;15.50;54.60
48454;DHT22;34261;55.678;12.464;2023-04-03T15:27:38;15.40;52.80
48454;DHT22;34261;55.678;12.464;2023-04-03T15:30:04;15.40;52.80
48454;DHT22;34261;55.678;12.464;2023-04-03T15:32:32;15.30;54.70
48454;DHT22;34261;55.678;12.464;2023-04-03T15:35:01;15.20;53.70
48454;DHT22;34261;55.678;12.464;2023-04-03T15:37:27;15.20;55.30
48454;DHT22;34261;55.678;12.464;2023-04-03T15:39:52;15.30;53.50
48454;DHT22;34261;55.678;12.464;2023-04-03T15:42:21;15.10;52.90
48454;DHT22;34261;55.678;12.464;2023-04-03T15:44:50;14.80;52.00
48454;DHT22;34261;55.678;12.464;2023-04-03T15:47:15;14.60;52.90
48454;DHT22;34261;55.678;12.464;2023-04-03T15:49:41;14.50;53.10
48454;DHT22;34261;55.678;12.464;2023-04-03T15:52:06;14.40;53.30
48454;DHT22;34261;55.678;12.464;2023-04-03T15:54:32;14.20;52.10
48454;DHT22;34261;55.678;12.464;2023-04-03T15:56:57;14.10;52.20
48454;DHT22;34261;55.678;12.464;2023-04-03T15:59:23;14.00;53.30
48454;DHT22;34261;55.678;12.464;2023-04-03T16:01:48;14.00;54.60
48454;DHT22;34261;55.678;12.464;2023-04-03T16:04:15;13.80;54.60
48454;DHT22;34261;55.678;12.464;2023-04-03T16:06:41;13.50;54.30
48454;DHT22;34261;55.678;12.464;2023-04-03T16:09:06;13.30;55.30
48454;DHT22;34261;55.678;12.464;2023-04-03T16:11:32;13.30;57.20
48454;DHT22;34261;55.678;12.464;2023-04-03T16:14:00;13.20;57.00
48454;DHT22;34261;55.678;12.464;2023-04-03T16:16:25;12.80;56.30
48454;DHT22;34261;55.678;12.464;2023-04-03T16:18:53;12.40;57.40
48454;DHT22;34261;55.678;12.464;2023-04-03T16:21:19;12.10;57.70
48454;DHT22;34261;55.678;12.464;2023-04-03T16:23:45;11.60;57.90
48454;DHT22;34261;55.678;12.464;2023-04-03T16:26:11;11.50;58.00
48454;DHT22;34261;55.678;12.464;2023-04-03T16:28:37;11.30;58.60
48454;DHT22;34261;55.678;12.464;2023-04-03T16:31:02;11.30;58.80
48454;DHT22;34261;55.678;12.464;2023-04-03T16:33:28;11.30;59.00
48454;DHT22;34261;55.678;12.464;2023-04-03T16:35:54;11.20;58.30
48454;DHT22;34261;55.678;12.464;2023-04-03T16:38:19;11.30;59.30